sensor_id;sensor_type;location;lat;lon;timestamp;pressure;altitude;pressure_sealevel;temperature;humidity
65758;BME280;52495;52.208;5.158;2024-02-16T00:01:59;100784.69;;;12.05;100.00
65758;BME280;52495;52.208;5.158;2024-02-16T00:04:26;100774.38;;;12.04;100.00
65758;BME280;52495;52.208;5.158;2024-02-16T00:06:53;100778.75;;;12.02;100.00
65758;BME280;52495;52.208;5.158;2024-02-16T00:09:20;100771.88;;;12.01;100.00
65758;BME280;52495;52.208;5.158;2024-02-16T00:11:48;100776.19;;;12.00;100.00
65758;BME280;52495;52.208;5.158;2024-02-16T00:14:16;100773.63;;;11.98;100.00
65758;BME280;52495;52.208;5.158;2024-02-16T00:16:42;100768.47;;;11.97;100.00
65758;BME280;52495;52.208;5.158;2024-02-16T00:19:23;100773.72;;;11.94;100.00
65758;BME280;52495;52.208;5.158;2024-02-16T00:21:50;100773.78;;;11.92;100.00
65758;BME280;52495;52.208;5.158;2024-02-16T00:24:17;100766.84;;;11.93;100.00
65758;BME280;52495;52.208;5.158;2024-02-16T00:26:44;100765.13;;;11.92;100.00
65758;BME280;52495;52.208;5.158;2024-02-16T00:29:13;100772.06;;;11.91;100.00
65758;BME280;52495;52.208;5.158;2024-02-16T00:31:40;100765.19;;;11.90;100.00
65758;BME280;52495;52.208;5.158;2024-02-16T00:34:06;100761.72;;;11.91;100.00
65758;BME280;52495;52.208;5.158;2024-02-16T00:36:33;100770.38;;;11.90;100.00
65758;BME280;52495;52.208;5.158;2024-02-16T00:39:00;100775.53;;;11.90;100.00
65758;BME280;52495;52.208;5.158;2024-02-16T00:41:27;100765.19;;;11.90;100.00
65758;BME280;52495;52.208;5.158;2024-02-16T00:43:54;100763.50;;;11.88;100.00
65758;BME280;52495;52.208;5.158;2024-02-16T00:46:23;100761.78;;;11.88;100.00
65758;BME280;52495;52.208;5.158;2024-02-16T00:48:49;100764.44;;;11.87;100.00
65758;BME280;52495;52.208;5.158;2024-02-16T00:51:16;100760.97;;;11.86;100.00
65758;BME280;52495;52.208;5.158;2024-02-16T00:53:43;100754.22;;;11.79;100.00
65758;BME280;52495;52.208;5.158;2024-02-16T00:56:10;100763.63;;;11.83;100.00
65758;BME280;52495;52.208;5.158;2024-02-16T00:58:40;100763.63;;;11.83;100.00
65758;BME280;52495;52.208;5.158;2024-02-16T01:01:07;100757.63;;;11.82;100.00
65758;BME280;52495;52.208;5.158;2024-02-16T01:03:37;100755.03;;;11.82;100.00
65758;BME280;52495;52.208;5.158;2024-02-16T01:06:04;100751.56;;;11.82;100.00
65758;BME280;52495;52.208;5.158;2024-02-16T01:08:32;100750.84;;;11.77;100.00
65758;BME280;52495;52.208;5.158;2024-02-16T01:10:58;100754.34;;;11.74;100.00
65758;BME280;52495;52.208;5.158;2024-02-16T01:13:25;100754.34;;;11.74;100.00
65758;BME280;52495;52.208;5.158;2024-02-16T01:15:52;100745.75;;;11.72;100.00
65758;BME280;52495;52.208;5.158;2024-02-16T01:18:19;100744.06;;;11.71;100.00
65758;BME280;52495;52.208;5.158;2024-02-16T01:20:47;100728.66;;;11.68;100.00
65758;BME280;52495;52.208;5.158;2024-02-16T01:23:13;100739.72;;;11.73;100.00
65758;BME280;52495;52.208;5.158;2024-02-16T01:25:40;100738.88;;;11.73;100.00
65758;BME280;52495;52.208;5.158;2024-02-16T01:28:07;100740.59;;;11.72;100.00
65758;BME280;52495;52.208;5.158;2024-02-16T01:30:34;100733.69;;;11.73;100.00
65758;BME280;52495;52.208;5.158;2024-02-16T01:33:02;100726.00;;;11.69;100.00
65758;BME280;52495;52.208;5.158;2024-02-16T01:35:29;100722.41;;;11.77;100.00
65758;BME280;52495;52.208;5.158;2024-02-16T01:37:57;100728.47;;;11.74;100.00
65758;BME280;52495;52.208;5.158;2024-02-16T01:40:24;100727.66;;;11.74;100.00
65758;BME280;52495;52.208;5.158;2024-02-16T01:42:52;100728.47;;;11.76;100.00
65758;BME280;52495;52.208;5.158;2024-02-16T01:45:19;100735.41;;;11.74;100.00
65758;BME280;52495;52.208;5.158;2024-02-16T01:47:47;100737.16;;;11.72;100.00
65758;BME280;52495;52.208;5.158;2024-02-16T01:50:16;100727.72;;;11.71;100.00
65758;BME280;52495;52.208;5.158;2024-02-16T01:52:44;100729.44;;;11.70;100.00
65758;BME280;52495;52.208;5.158;2024-02-16T01:55:13;100724.34;;;11.67;100.00
65758;BME280;52495;52.208;5.158;2024-02-16T01:57:40;100722.59;;;11.67;100.00
65758;BME280;52495;52.208;5.158;2024-02-16T02:00:09;100717.44;;;11.67;100.00
65758;BME280;52495;52.208;5.158;2024-02-16T02:02:37;100702.81;;;11.66;100.00
65758;BME280;52495;52.208;5.158;2024-02-16T02:05:04;100695.03;;;11.68;100.00
65758;BME280;52495;52.208;5.158;2024-02-16T02:07:31;100686.41;;;11.67;100.00
65758;BME280;52495;52.208;5.158;2024-02-16T02:09:58;100710.53;;;11.68;100.00
65758;BME280;52495;52.208;5.158;2024-02-16T02:12:27;100727.81;;;11.66;100.00
65758;BME280;52495;52.208;5.158;2024-02-16T02:14:53;100733.84;;;11.66;100.00
65758;BME280;52495;52.208;5.158;2024-02-16T02:17:20;100720.03;;;11.67;100.00
65758;BME280;52495;52.208;5.158;2024-02-16T02:19:47;100717.47;;;11.66;100.00
65758;BME280;52495;52.208;5.158;2024-02-16T02:22:16;100713.19;;;11.65;100.00
65758;BME280;52495;52.208;5.158;2024-02-16T02:24:43;100715.78;;;11.65;100.00
65758;BME280;52495;52.208;5.158;2024-02-16T02:27:11;100709.78;;;11.63;100.00
65758;BME280;52495;52.208;5.158;2024-02-16T02:29:38;100696.91;;;11.61;100.00
65758;BME280;52495;52.208;5.158;2024-02-16T02:32:05;100691.81;;;11.58;100.00
65758;BME280;52495;52.208;5.158;2024-02-16T02:34:32;100704.75;;;11.58;100.00
65758;BME280;52495;52.208;5.158;2024-02-16T02:36:59;100696.19;;;11.54;100.00
65758;BME280;52495;52.208;5.158;2024-02-16T02:39:27;100690.31;;;11.48;100.00
65758;BME280;52495;52.208;5.158;2024-02-16T02:41:54;100696.28;;;11.51;100.00
65758;BME280;52495;52.208;5.158;2024-02-16T02:44:21;100692.94;;;11.46;100.00
65758;BME280;52495;52.208;5.158;2024-02-16T02:46:47;100692.88;;;11.48;100.00
65758;BME280;52495;52.208;5.158;2024-02-16T02:49:14;100698.94;;;11.48;100.00
65758;BME280;52495;52.208;5.158;2024-02-16T02:51:41;100681.00;;;11.41;100.00
65758;BME280;52495;52.208;5.158;2024-02-16T02:54:07;100686.88;;;11.47;100.00
65758;BME280;52495;52.208;5.158;2024-02-16T02:56:35;100684.31;;;11.47;100.00
65758;BME280;52495;52.208;5.158;2024-02-16T02:59:02;100685.13;;;11.48;100.00
65758;BME280;52495;52.208;5.158;2024-02-16T03:01:31;100681.66;;;11.49;100.00
65758;BME280;52495;52.208;5.158;2024-02-16T03:03:58;100671.31;;;11.49;100.00
65758;BME280;52495;52.208;5.158;2024-02-16T03:06:25;100688.53;;;11.50;100.00
65758;BME280;52495;52.208;5.158;2024-02-16T03:08:52;100673.13;;;11.45;100.00
65758;BME280;52495;52.208;5.158;2024-02-16T03:11:18;100679.16;;;11.46;100.00
65758;BME280;52495;52.208;5.158;2024-02-16T03:13:46;100682.59;;;11.46;100.00
65758;BME280;52495;52.208;5.158;2024-02-16T03:16:13;100664.53;;;11.45;100.00
65758;BME280;52495;52.208;5.158;2024-02-16T03:18:40;100662.84;;;11.44;100.00
65758;BME280;52495;52.208;5.158;2024-02-16T03:21:07;100664.53;;;11.45;100.00
65758;BME280;52495;52.208;5.158;2024-02-16T03:23:34;100672.28;;;11.45;100.00
65758;BME280;52495;52.208;5.158;2024-02-16T03:26:03;100668.03;;;11.42;100.00
65758;BME280;52495;52.208;5.158;2024-02-16T03:28:30;100671.56;;;11.38;100.00
65758;BME280;52495;52.208;5.158;2024-02-16T03:30:58;100674.16;;;11.38;100.00
65758;BME280;52495;52.208;5.158;2024-02-16T03:33:25;100669.88;;;11.37;100.00
65758;BME280;52495;52.208;5.158;2024-02-16T03:35:51;100670.75;;;11.36;100.00
65758;BME280;52495;52.208;5.158;2024-02-16T03:38:18;100670.81;;;11.34;100.00
65758;BME280;52495;52.208;5.158;2024-02-16T03:40:46;100668.22;;;11.34;100.00
65758;BME280;52495;52.208;5.158;2024-02-16T03:43:13;100678.66;;;11.30;100.00
65758;BME280;52495;52.208;5.158;2024-02-16T03:45:40;100663.34;;;11.20;100.00
65758;BME280;52495;52.208;5.158;2024-02-16T03:48:08;100673.63;;;11.23;100.00
65758;BME280;52495;52.208;5.158;2024-02-16T03:50:35;100665.94;;;11.22;100.00
65758;BME280;52495;52.208;5.158;2024-02-16T03:53:01;100671.03;;;11.23;100.00
65758;BME280;52495;52.208;5.158;2024-02-16T03:55:29;100669.28;;;11.26;100.00
65758;BME280;52495;52.208;5.158;2024-02-16T03:57:58;100665.88;;;11.23;100.00
65758;BME280;52495;52.208;5.158;2024-02-16T04:00:25;100668.50;;;11.22;100.00
65758;BME280;52495;52.208;5.158;2024-02-16T04:02:52;100679.72;;;11.21;100.00
65758;BME280;52495;52.208;5.158;2024-02-16T04:05:20;100677.16;;;11.21;100.00
65758;BME280;52495;52.208;5.158;2024-02-16T04:07:47;100677.97;;;11.21;100.00
65758;BME280;52495;52.208;5.158;2024-02-16T04:10:14;100681.44;;;11.22;100.00
65758;BME280;52495;52.208;5.158;2024-02-16T04:12:41;100672.81;;;11.21;100.00
65758;BME280;52495;52.208;5.158;2024-02-16T04:15:08;100669.41;;;11.21;100.00
65758;BME280;52495;52.208;5.158;2024-02-16T04:17:35;100665.09;;;11.20;100.00
65758;BME280;52495;52.208;5.158;2024-02-16T04:20:03;100663.41;;;11.19;100.00
65758;BME280;52495;52.208;5.158;2024-02-16T04:22:31;100669.47;;;11.18;100.00
65758;BME280;52495;52.208;5.158;2024-02-16T04:25:02;100666.97;;;11.13;100.00
65758;BME280;52495;52.208;5.158;2024-02-16T04:27:29;100664.41;;;11.13;100.00
65758;BME280;52495;52.208;5.158;2024-02-16T04:29:56;100663.56;;;11.11;100.00
65758;BME280;52495;52.208;5.158;2024-02-16T04:32:23;100665.34;;;11.09;100.00
65758;BME280;52495;52.208;5.158;2024-02-16T04:34:51;100666.22;;;11.08;100.00
65758;BME280;52495;52.208;5.158;2024-02-16T04:37:18;100663.75;;;11.02;100.00
65758;BME280;52495;52.208;5.158;2024-02-16T04:39:46;100662.09;;;11.01;100.00
65758;BME280;52495;52.208;5.158;2024-02-16T04:42:13;100676.72;;;11.00;100.00
65758;BME280;52495;52.208;5.158;2024-02-16T04:44:40;100677.66;;;10.98;100.00
65758;BME280;52495;52.208;5.158;2024-02-16T04:47:07;100669.03;;;10.97;100.00
65758;BME280;52495;52.208;5.158;2024-02-16T04:49:35;100666.47;;;10.97;100.00
65758;BME280;52495;52.208;5.158;2024-02-16T04:52:03;100669.91;;;10.98;100.00
65758;BME280;52495;52.208;5.158;2024-02-16T04:54:30;100673.38;;;10.97;100.00
65758;BME280;52495;52.208;5.158;2024-02-16T04:56:58;100669.97;;;10.95;100.00
65758;BME280;52495;52.208;5.158;2024-02-16T04:59:25;100673.38;;;10.95;100.00
65758;BME280;52495;52.208;5.158;2024-02-16T05:01:53;100670.81;;;10.95;100.00
65758;BME280;52495;52.208;5.158;2024-02-16T05:04:21;100673.44;;;10.93;100.00
65758;BME280;52495;52.208;5.158;2024-02-16T05:06:48;100668.31;;;10.92;100.00
65758;BME280;52495;52.208;5.158;2024-02-16T05:09:17;100674.34;;;10.91;100.00
65758;BME280;52495;52.208;5.158;2024-02-16T05:11:44;100665.75;;;10.90;100.00
65758;BME280;52495;52.208;5.158;2024-02-16T05:14:12;100670.94;;;10.89;100.00
65758;BME280;52495;52.208;5.158;2024-02-16T05:16:43;100664.97;;;10.87;100.00
65758;BME280;52495;52.208;5.158;2024-02-16T05:19:10;100660.72;;;10.84;100.00
65758;BME280;52495;52.208;5.158;2024-02-16T05:21:37;100659.91;;;10.82;100.00
65758;BME280;52495;52.208;5.158;2024-02-16T05:24:04;100659.03;;;10.82;100.00
65758;BME280;52495;52.208;5.158;2024-02-16T05:26:31;100651.34;;;10.78;100.00
65758;BME280;52495;52.208;5.158;2024-02-16T05:28:58;100654.81;;;10.77;100.00
65758;BME280;52495;52.208;5.158;2024-02-16T05:31:26;100647.16;;;10.73;100.00
65758;BME280;52495;52.208;5.158;2024-02-16T05:33:53;100647.16;;;10.73;100.00
65758;BME280;52495;52.208;5.158;2024-02-16T05:36:20;100651.41;;;10.77;100.00
65758;BME280;52495;52.208;5.158;2024-02-16T05:38:50;100654.84;;;10.76;100.00
65758;BME280;52495;52.208;5.158;2024-02-16T05:41:20;100658.28;;;10.76;100.00
65758;BME280;52495;52.208;5.158;2024-02-16T05:43:47;100661.72;;;10.77;100.00
65758;BME280;52495;52.208;5.158;2024-02-16T05:46:14;100656.50;;;10.78;100.00
65758;BME280;52495;52.208;5.158;2024-02-16T05:48:42;100655.78;;;10.73;100.00
65758;BME280;52495;52.208;5.158;2024-02-16T05:51:09;100662.53;;;10.79;100.00
65758;BME280;52495;52.208;5.158;2024-02-16T05:53:38;100672.09;;;10.75;100.00
65758;BME280;52495;52.208;5.158;2024-02-16T05:56:06;100661.72;;;10.77;100.00
65758;BME280;52495;52.208;5.158;2024-02-16T05:58:35;100664.25;;;10.78;100.00
65758;BME280;52495;52.208;5.158;2024-02-16T06:01:02;100666.78;;;10.82;100.00
65758;BME280;52495;52.208;5.158;2024-02-16T06:03:29;100666.84;;;10.80;100.00
65758;BME280;52495;52.208;5.158;2024-02-16T06:05:57;100660.84;;;10.78;100.00
65758;BME280;52495;52.208;5.158;2024-02-16T06:08:24;100667.66;;;10.81;100.00
65758;BME280;52495;52.208;5.158;2024-02-16T06:10:51;100676.28;;;10.80;100.00
65758;BME280;52495;52.208;5.158;2024-02-16T06:13:20;100675.34;;;10.84;100.00
65758;BME280;52495;52.208;5.158;2024-02-16T06:15:47;100673.63;;;10.84;100.00
65758;BME280;52495;52.208;5.158;2024-02-16T06:18:14;100689.09;;;10.86;100.00
65758;BME280;52495;52.208;5.158;2024-02-16T06:20:40;100682.19;;;10.86;100.00
65758;BME280;52495;52.208;5.158;2024-02-16T06:23:09;100683.00;;;10.90;100.00
65758;BME280;52495;52.208;5.158;2024-02-16T06:25:35;100689.00;;;10.90;100.00
65758;BME280;52495;52.208;5.158;2024-02-16T06:28:02;100694.97;;;10.92;100.00
65758;BME280;52495;52.208;5.158;2024-02-16T06:30:30;100693.25;;;10.93;100.00
65758;BME280;52495;52.208;5.158;2024-02-16T06:32:56;100701.78;;;10.95;100.00
65758;BME280;52495;52.208;5.158;2024-02-16T06:35:24;100705.25;;;10.96;100.00
65758;BME280;52495;52.208;5.158;2024-02-16T06:37:51;100708.63;;;10.99;100.00
65758;BME280;52495;52.208;5.158;2024-02-16T06:40:19;100712.91;;;11.00;100.00
65758;BME280;52495;52.208;5.158;2024-02-16T06:42:46;100712.00;;;11.01;100.00
65758;BME280;52495;52.208;5.158;2024-02-16T06:45:13;100709.38;;;11.03;100.00
65758;BME280;52495;52.208;5.158;2024-02-16T06:47:40;100716.13;;;11.10;100.00
65758;BME280;52495;52.208;5.158;2024-02-16T06:50:07;100718.81;;;11.05;100.00
65758;BME280;52495;52.208;5.158;2024-02-16T06:52:34;100711.91;;;11.07;100.00
65758;BME280;52495;52.208;5.158;2024-02-16T06:55:01;100709.25;;;11.09;100.00
65758;BME280;52495;52.208;5.158;2024-02-16T06:57:29;100716.97;;;11.12;100.00
65758;BME280;52495;52.208;5.158;2024-02-16T06:59:57;100718.59;;;11.16;100.00
65758;BME280;52495;52.208;5.158;2024-02-16T07:02:23;100721.19;;;11.15;100.00
65758;BME280;52495;52.208;5.158;2024-02-16T07:04:50;100722.88;;;11.17;100.00
65758;BME280;52495;52.208;5.158;2024-02-16T07:07:17;100741.75;;;11.19;100.00
65758;BME280;52495;52.208;5.158;2024-02-16T07:09:45;100745.22;;;11.20;100.00
65758;BME280;52495;52.208;5.158;2024-02-16T07:12:11;100752.09;;;11.21;100.00
65758;BME280;52495;52.208;5.158;2024-02-16T07:14:40;100736.66;;;11.18;100.00
65758;BME280;52495;52.208;5.158;2024-02-16T07:17:07;100752.91;;;11.23;100.00
65758;BME280;52495;52.208;5.158;2024-02-16T07:19:35;100741.69;;;11.24;100.00
65758;BME280;52495;52.208;5.158;2024-02-16T07:22:02;100751.97;;;11.26;100.00
65758;BME280;52495;52.208;5.158;2024-02-16T07:24:28;100750.16;;;11.31;100.00
65758;BME280;52495;52.208;5.158;2024-02-16T07:26:55;100751.06;;;11.28;100.00
65758;BME280;52495;52.208;5.158;2024-02-16T07:29:23;100748.41;;;11.31;100.00
65758;BME280;52495;52.208;5.158;2024-02-16T07:31:52;100750.97;;;11.33;100.00
65758;BME280;52495;52.208;5.158;2024-02-16T07:34:19;100744.88;;;11.35;100.00
65758;BME280;52495;52.208;5.158;2024-02-16T07:36:46;100764.63;;;11.38;100.00
65758;BME280;52495;52.208;5.158;2024-02-16T07:39:12;100769.78;;;11.39;100.00
65758;BME280;52495;52.208;5.158;2024-02-16T07:41:39;100762.75;;;11.45;100.00
65758;BME280;52495;52.208;5.158;2024-02-16T07:44:06;100773.91;;;11.47;100.00
65758;BME280;52495;52.208;5.158;2024-02-16T07:46:33;100771.28;;;11.50;100.00
65758;BME280;52495;52.208;5.158;2024-02-16T07:49:02;100777.22;;;11.53;100.00
65758;BME280;52495;52.208;5.158;2024-02-16T07:51:29;100785.78;;;11.56;100.00
65758;BME280;52495;52.208;5.158;2024-02-16T07:53:56;100779.69;;;11.60;100.00
65758;BME280;52495;52.208;5.158;2024-02-16T07:56:23;100788.31;;;11.60;100.00
65758;BME280;52495;52.208;5.158;2024-02-16T07:58:49;100789.91;;;11.64;100.00
65758;BME280;52495;52.208;5.158;2024-02-16T08:01:16;100802.78;;;11.67;100.00
65758;BME280;52495;52.208;5.158;2024-02-16T08:03:43;100807.84;;;11.72;100.00
65758;BME280;52495;52.208;5.158;2024-02-16T08:06:11;100806.94;;;11.75;100.00
65758;BME280;52495;52.208;5.158;2024-02-16T08:08:38;100803.47;;;11.76;100.00
65758;BME280;52495;52.208;5.158;2024-02-16T08:11:05;100803.34;;;11.80;100.00
65758;BME280;52495;52.208;5.158;2024-02-16T08:13:32;100800.72;;;11.83;100.00
65758;BME280;52495;52.208;5.158;2024-02-16T08:15:58;100816.13;;;11.88;100.00
65758;BME280;52495;52.208;5.158;2024-02-16T08:18:32;100812.66;;;11.89;100.00
65758;BME280;52495;52.208;5.158;2024-02-16T08:20:59;100815.19;;;11.91;100.00
65758;BME280;52495;52.208;5.158;2024-02-16T08:23:27;100820.28;;;11.95;100.00
65758;BME280;52495;52.208;5.158;2024-02-16T08:25:54;100824.53;;;11.98;100.00
65758;BME280;52495;52.208;5.158;2024-02-16T08:28:20;100827.03;;;12.03;100.00
65758;BME280;52495;52.208;5.158;2024-02-16T08:30:47;100832.09;;;12.07;100.00
65758;BME280;52495;52.208;5.158;2024-02-16T08:33:14;100829.50;;;12.07;100.00
65758;BME280;52495;52.208;5.158;2024-02-16T08:35:41;100822.41;;;12.16;100.00
65758;BME280;52495;52.208;5.158;2024-02-16T08:38:07;100824.94;;;12.19;100.00
65758;BME280;52495;52.208;5.158;2024-02-16T08:40:37;100831.81;;;12.20;100.00
65758;BME280;52495;52.208;5.158;2024-02-16T08:43:05;100832.50;;;12.26;100.00
65758;BME280;52495;52.208;5.158;2024-02-16T08:45:32;100841.03;;;12.30;100.00
65758;BME280;52495;52.208;5.158;2024-02-16T08:48:00;100851.34;;;12.32;100.00
65758;BME280;52495;52.208;5.158;2024-02-16T08:50:29;100841.84;;;12.32;100.00
65758;BME280;52495;52.208;5.158;2024-02-16T08:52:56;100848.56;;;12.41;100.00
65758;BME280;52495;52.208;5.158;2024-02-16T08:55:23;100851.97;;;12.43;100.00
65758;BME280;52495;52.208;5.158;2024-02-16T08:57:51;100846.66;;;12.48;100.00
65758;BME280;52495;52.208;5.158;2024-02-16T09:00:18;100851.00;;;12.45;100.00
65758;BME280;52495;52.208;5.158;2024-02-16T09:02:46;100852.59;;;12.51;100.00
65758;BME280;52495;52.208;5.158;2024-02-16T09:05:13;100872.34;;;12.55;100.00
65758;BME280;52495;52.208;5.158;2024-02-16T09:07:39;100865.34;;;12.59;100.00
65758;BME280;52495;52.208;5.158;2024-02-16T09:10:07;100871.31;;;12.63;100.00
65758;BME280;52495;52.208;5.158;2024-02-16T09:12:34;100880.81;;;12.64;100.00
65758;BME280;52495;52.208;5.158;2024-02-16T09:15:02;100888.59;;;12.62;100.00
65758;BME280;52495;52.208;5.158;2024-02-16T09:17:31;100888.56;;;12.64;100.00
65758;BME280;52495;52.208;5.158;2024-02-16T09:19:58;100903.19;;;12.66;100.00
65758;BME280;52495;52.208;5.158;2024-02-16T09:22:24;100909.25;;;12.65;100.00
65758;BME280;52495;52.208;5.158;2024-02-16T09:24:51;100905.75;;;12.66;100.00
65758;BME280;52495;52.208;5.158;2024-02-16T09:27:20;100917.84;;;12.67;100.00
65758;BME280;52495;52.208;5.158;2024-02-16T09:29:49;100919.59;;;12.65;100.00
65758;BME280;52495;52.208;5.158;2024-02-16T09:32:17;100917.84;;;12.66;100.00
65758;BME280;52495;52.208;5.158;2024-02-16T09:34:44;100921.31;;;12.66;100.00
65758;BME280;52495;52.208;5.158;2024-02-16T09:37:11;100927.38;;;12.65;100.00
65758;BME280;52495;52.208;5.158;2024-02-16T09:39:38;100923.09;;;12.64;100.00
65758;BME280;52495;52.208;5.158;2024-02-16T09:42:06;100932.56;;;12.65;100.00
65758;BME280;52495;52.208;5.158;2024-02-16T09:44:35;100933.41;;;12.66;100.00
65758;BME280;52495;52.208;5.158;2024-02-16T09:47:03;100937.78;;;12.64;100.00
65758;BME280;52495;52.208;5.158;2024-02-16T09:49:33;100941.22;;;12.64;100.00
65758;BME280;52495;52.208;5.158;2024-02-16T09:52:02;100950.75;;;12.64;100.00
65758;BME280;52495;52.208;5.158;2024-02-16T09:54:30;100953.34;;;12.62;100.00
65758;BME280;52495;52.208;5.158;2024-02-16T09:56:59;100956.06;;;12.57;100.00
65758;BME280;52495;52.208;5.158;2024-02-16T09:59:26;100956.06;;;12.57;100.00
65758;BME280;52495;52.208;5.158;2024-02-16T10:01:59;100968.19;;;12.55;100.00
65758;BME280;52495;52.208;5.158;2024-02-16T10:04:26;100972.41;;;12.59;100.00
65758;BME280;52495;52.208;5.158;2024-02-16T10:06:54;100984.53;;;12.57;100.00
65758;BME280;52495;52.208;5.158;2024-02-16T10:09:23;100994.09;;;12.55;100.00
65758;BME280;52495;52.208;5.158;2024-02-16T10:11:50;100998.50;;;12.50;100.00
65758;BME280;52495;52.208;5.158;2024-02-16T10:14:17;101006.31;;;12.49;100.00
65758;BME280;52495;52.208;5.158;2024-02-16T10:16:45;101001.22;;;12.45;100.00
65758;BME280;52495;52.208;5.158;2024-02-16T10:19:12;101003.13;;;12.37;100.00
65758;BME280;52495;52.208;5.158;2024-02-16T10:21:40;100999.69;;;12.37;100.00
65758;BME280;52495;52.208;5.158;2024-02-16T10:24:09;101010.84;;;12.39;100.00
65758;BME280;52495;52.208;5.158;2024-02-16T10:26:36;101023.91;;;12.34;100.00
65758;BME280;52495;52.208;5.158;2024-02-16T10:29:04;101029.19;;;12.29;100.00
65758;BME280;52495;52.208;5.158;2024-02-16T10:31:33;101043.09;;;12.24;100.00
65758;BME280;52495;52.208;5.158;2024-02-16T10:34:00;101047.75;;;12.08;100.00
65758;BME280;52495;52.208;5.158;2024-02-16T10:36:31;101057.28;;;12.06;100.00
65758;BME280;52495;52.208;5.158;2024-02-16T10:38:59;101072.91;;;11.99;100.00
65758;BME280;52495;52.208;5.158;2024-02-16T10:41:35;101080.75;;;11.95;100.00
65758;BME280;52495;52.208;5.158;2024-02-16T10:44:03;101085.97;;;11.92;100.00
65758;BME280;52495;52.208;5.158;2024-02-16T10:46:31;101089.56;;;11.83;100.00
65758;BME280;52495;52.208;5.158;2024-02-16T10:48:58;101099.97;;;11.80;100.00
65758;BME280;52495;52.208;5.158;2024-02-16T10:51:28;101101.81;;;11.75;100.00
65758;BME280;52495;52.208;5.158;2024-02-16T10:53:57;101097.63;;;11.67;100.00
65758;BME280;52495;52.208;5.158;2024-02-16T10:56:27;101097.63;;;11.67;100.00
65758;BME280;52495;52.208;5.158;2024-02-16T10:59:00;101099.38;;;11.67;100.00
65758;BME280;52495;52.208;5.158;2024-02-16T11:01:28;101097.66;;;11.64;100.00
65758;BME280;52495;52.208;5.158;2024-02-16T11:04:00;101092.50;;;11.64;100.00
65758;BME280;52495;52.208;5.158;2024-02-16T11:06:28;101090.72;;;11.68;100.00
65758;BME280;52495;52.208;5.158;2024-02-16T11:09:01;101095.91;;;11.66;100.00
65758;BME280;52495;52.208;5.158;2024-02-16T11:11:28;101104.50;;;11.68;100.00
65758;BME280;52495;52.208;5.158;2024-02-16T11:13:57;101103.56;;;11.71;100.00
65758;BME280;52495;52.208;5.158;2024-02-16T11:16:23;101118.22;;;11.74;100.00
65758;BME280;52495;52.208;5.158;2024-02-16T11:18:50;101119.09;;;11.71;100.00
65758;BME280;52495;52.208;5.158;2024-02-16T11:21:17;101127.69;;;11.73;100.00
65758;BME280;52495;52.208;5.158;2024-02-16T11:23:44;101123.41;;;11.72;100.00
65758;BME280;52495;52.208;5.158;2024-02-16T11:26:12;101120.81;;;11.72;100.00
65758;BME280;52495;52.208;5.158;2024-02-16T11:28:41;101112.25;;;11.68;100.00
65758;BME280;52495;52.208;5.158;2024-02-16T11:31:09;101112.22;;;11.72;100.00
65758;BME280;52495;52.208;5.158;2024-02-16T11:33:36;101117.34;;;11.73;100.00
65758;BME280;52495;52.208;5.158;2024-02-16T11:36:09;101117.34;;;11.73;100.00
65758;BME280;52495;52.208;5.158;2024-02-16T11:38:37;101138.03;;;11.73;100.00
65758;BME280;52495;52.208;5.158;2024-02-16T11:41:05;101141.50;;;11.74;100.00
65758;BME280;52495;52.208;5.158;2024-02-16T11:43:33;101165.69;;;11.69;100.00
65758;BME280;52495;52.208;5.158;2024-02-16T11:46:12;101153.91;;;11.53;100.00
65758;BME280;52495;52.208;5.158;2024-02-16T11:48:39;101166.66;;;11.62;100.00
65758;BME280;52495;52.208;5.158;2024-02-16T11:51:06;101179.59;;;11.62;100.00
65758;BME280;52495;52.208;5.158;2024-02-16T11:53:33;101176.25;;;11.57;100.00
65758;BME280;52495;52.208;5.158;2024-02-16T11:56:00;101182.31;;;11.56;100.00
65758;BME280;52495;52.208;5.158;2024-02-16T11:58:27;101194.44;;;11.51;100.00
65758;BME280;52495;52.208;5.158;2024-02-16T12:00:54;101198.81;;;11.47;100.00
65758;BME280;52495;52.208;5.158;2024-02-16T12:03:24;101206.56;;;11.47;100.00
65758;BME280;52495;52.208;5.158;2024-02-16T12:05:54;101196.38;;;11.36;100.00
65758;BME280;52495;52.208;5.158;2024-02-16T12:08:21;101206.69;;;11.39;100.00
65758;BME280;52495;52.208;5.158;2024-02-16T12:10:49;101222.19;;;11.39;100.00
65758;BME280;52495;52.208;5.158;2024-02-16T12:13:16;101218.09;;;11.26;100.00
65758;BME280;52495;52.208;5.158;2024-02-16T12:15:44;101234.50;;;11.22;100.00
65758;BME280;52495;52.208;5.158;2024-02-16T12:18:19;101236.22;;;11.23;100.00
65758;BME280;52495;52.208;5.158;2024-02-16T12:20:56;101236.41;;;11.07;100.00
65758;BME280;52495;52.208;5.158;2024-02-16T12:23:23;101233.06;;;10.99;100.00
65758;BME280;52495;52.208;5.158;2024-02-16T12:25:50;101237.34;;;11.00;100.00
65758;BME280;52495;52.208;5.158;2024-02-16T12:28:16;101232.88;;;11.15;100.00
65758;BME280;52495;52.208;5.158;2024-02-16T12:30:43;101233.69;;;11.17;100.00
65758;BME280;52495;52.208;5.158;2024-02-16T12:33:10;101232.78;;;11.19;100.00
65758;BME280;52495;52.208;5.158;2024-02-16T12:35:37;101238.88;;;11.17;100.00
65758;BME280;52495;52.208;5.158;2024-02-16T12:38:05;101236.16;;;11.28;100.00
65758;BME280;52495;52.208;5.158;2024-02-16T12:40:32;101236.84;;;11.39;100.00
65758;BME280;52495;52.208;5.158;2024-02-16T12:42:59;101242.19;;;11.27;100.00